Time;durP1;ratioP1;P1;durP2;ratioP2;P2;SDS_P1;SDS_P2;PMS_P1;PMS_P2;Temp;Humidity;BMP_temperature;BMP_pressure;BME280_temperature;BME280_humidity;BME280_pressure;Samples;Min_cycle;Max_cycle;Signal;HPM_P1;HPM_P2
2022/11/12 00:02:19;;;;;;;17.90;14.23;;;;;;;;;;4996543;28;20060;-70
2022/11/12 00:05:04;;;;;;;19.27;12.88;;;;;;;;;;4993571;28;20038;-69
2022/11/12 00:07:48;;;;;;;15.52;13.27;;;;;;;;;;4992077;28;20036;-69
2022/11/12 00:10:32;;;;;;;17.50;13.55;;;;;;;;;;4995060;28;20370;-70
2022/11/12 00:13:16;;;;;;;22.15;14.07;;;;;;;;;;4992384;28;20095;-70
2022/11/12 00:16:01;;;;;;;18.08;13.77;;;;;;;;;;4985857;28;20065;-69
2022/11/12 00:18:47;;;;;;;19.35;14.23;;;;;;;;;;4992183;28;20030;-71
2022/11/12 00:21:31;;;;;;;16.83;13.63;;;;;;;;;;4992182;28;20162;-71
2022/11/12 00:24:15;;;;;;;18.70;14.52;;;;;;;;;;4992845;28;20481;-68
2022/11/12 00:27:00;;;;;;;20.70;14.38;;;;;;;;;;4995426;28;20567;-69
2022/11/12 00:29:44;;;;;;;16.80;13.48;;;;;;;;;;4996074;28;20053;-69
2022/11/12 00:32:29;;;;;;;20.10;15.27;;;;;;;;;;4989251;28;20395;-70
2022/11/12 00:35:13;;;;;;;19.38;14.65;;;;;;;;;;4995203;28;20030;-68
2022/11/12 00:37:57;;;;;;;21.48;16.48;;;;;;;;;;4998398;28;20034;-70
2022/11/12 00:40:42;;;;;;;22.83;15.13;;;;;;;;;;4995419;28;20042;-70
2022/11/12 00:43:27;;;;;;;21.50;14.70;;;;;;;;;;4993132;28;20536;-69
2022/11/12 00:46:10;;;;;;;20.33;14.90;;;;;;;;;;5000340;28;20092;-69
2022/11/12 00:48:55;;;;;;;19.05;15.35;;;;;;;;;;4995264;28;20053;-69
2022/11/12 00:51:39;;;;;;;21.25;15.50;;;;;;;;;;4993573;28;20298;-71
2022/11/12 00:54:23;;;;;;;17.83;13.90;;;;;;;;;;5002116;28;20136;-69
2022/11/12 00:57:08;;;;;;;19.65;14.13;;;;;;;;;;4996962;28;20037;-70
2022/11/12 00:59:52;;;;;;;12.68;11.45;;;;;;;;;;4991990;28;20123;-70
2022/11/12 01:02:37;;;;;;;11.40;10.32;;;;;;;;;;4996084;28;20053;-68
2022/11/12 01:05:21;;;;;;;9.60;8.70;;;;;;;;;;4995857;28;20528;-69
2022/11/12 01:08:05;;;;;;;12.55;11.23;;;;;;;;;;4988912;28;20073;-70
2022/11/12 01:10:49;;;;;;;13.07;11.77;;;;;;;;;;4994883;28;20061;-70
2022/11/12 01:13:35;;;;;;;15.02;12.32;;;;;;;;;;4996420;28;20313;-71
2022/11/12 01:16:21;;;;;;;15.63;14.00;;;;;;;;;;5003352;28;20042;-70
2022/11/12 01:19:09;;;;;;;16.08;9.77;;;;;;;;;;5000385;28;20481;-70
2022/11/12 01:21:53;;;;;;;13.70;12.35;;;;;;;;;;4996762;28;20042;-70
2022/11/12 01:24:37;;;;;;;12.85;10.68;;;;;;;;;;4990469;28;20045;-67
2022/11/12 01:27:22;;;;;;;12.18;10.70;;;;;;;;;;4996703;28;20081;-69
2022/11/12 01:30:06;;;;;;;12.43;10.15;;;;;;;;;;4999975;28;20169;-68
2022/11/12 01:32:51;;;;;;;13.20;11.85;;;;;;;;;;4993248;28;20092;-69
2022/11/12 01:35:35;;;;;;;13.57;11.85;;;;;;;;;;4990347;28;20048;-70
2022/11/12 01:38:19;;;;;;;13.05;11.77;;;;;;;;;;4995260;28;20067;-71
2022/11/12 01:41:05;;;;;;;13.43;12.02;;;;;;;;;;4990957;28;20513;-71
2022/11/12 01:44:13;;;;;;;14.35;11.52;;;;;;;;;;4995410;28;20044;-68
2022/11/12 01:47:24;;;;;;;11.60;10.38;;;;;;;;;;4998438;28;20042;-70
2022/11/12 01:50:18;;;;;;;15.48;10.82;;;;;;;;;;4988633;28;20101;-68
2022/11/12 01:53:07;;;;;;;11.00;9.90;;;;;;;;;;4994518;28;20034;-70
2022/11/12 01:55:51;;;;;;;25.55;10.63;;;;;;;;;;4996358;28;20047;-68
2022/11/12 01:58:38;;;;;;;21.80;10.85;;;;;;;;;;4991368;28;20065;-69
2022/11/12 02:01:22;;;;;;;38.72;9.27;;;;;;;;;;4990922;28;20038;-70
2022/11/12 02:04:07;;;;;;;20.85;10.13;;;;;;;;;;4996530;28;20383;-71
2022/11/12 02:06:53;;;;;;;19.23;9.32;;;;;;;;;;4994742;28;20045;-68
2022/11/12 02:09:38;;;;;;;15.77;9.52;;;;;;;;;;4990755;28;20059;-69
2022/11/12 02:15:25;;;;;;;32.95;10.30;;;;;;;;;;4991810;28;20038;-68
2022/11/12 02:18:10;;;;;;;38.22;11.30;;;;;;;;;;4990314;28;20038;-69
2022/11/12 02:21:02;;;;;;;76.38;11.77;;;;;;;;;;4997917;28;20087;-69
2022/11/12 02:23:46;;;;;;;54.03;11.35;;;;;;;;;;4991213;28;20414;-68
2022/11/12 02:26:35;;;;;;;17.38;11.40;;;;;;;;;;4987895;28;20125;-69
2022/11/12 02:29:20;;;;;;;32.33;10.13;;;;;;;;;;4996213;28;20049;-70
2022/11/12 02:32:05;;;;;;;45.22;10.77;;;;;;;;;;4992965;28;20075;-70
2022/11/12 02:34:49;;;;;;;46.20;11.48;;;;;;;;;;4990023;28;20041;-70
2022/11/12 02:37:33;;;;;;;48.17;11.05;;;;;;;;;;4994966;28;20044;-70
2022/11/12 02:40:18;;;;;;;46.00;10.60;;;;;;;;;;4992108;28;20045;-70
2022/11/12 02:43:02;;;;;;;62.50;11.15;;;;;;;;;;4989680;28;20661;-71
2022/11/12 02:45:46;;;;;;;77.85;12.80;;;;;;;;;;4994040;28;20040;-69
2022/11/12 02:48:31;;;;;;;37.05;10.18;;;;;;;;;;4992551;28;20038;-68
2022/11/12 02:51:15;;;;;;;41.95;11.23;;;;;;;;;;4992640;28;20037;-67
2022/11/12 02:53:59;;;;;;;37.47;11.50;;;;;;;;;;4990189;28;20038;-69
2022/11/12 02:56:43;;;;;;;60.25;11.75;;;;;;;;;;4996625;28;20038;-70
2022/11/12 02:59:28;;;;;;;13.98;8.27;;;;;;;;;;4990705;28;20100;-71
2022/11/12 03:02:12;;;;;;;64.43;11.48;;;;;;;;;;4989151;28;20420;-70
2022/11/12 03:04:56;;;;;;;68.18;12.32;;;;;;;;;;4997159;28;20030;-71
2022/11/12 03:07:40;;;;;;;166.77;14.73;;;;;;;;;;4993562;28;20501;-70
2022/11/12 03:10:26;;;;;;;104.75;13.80;;;;;;;;;;4988799;28;20038;-69
2022/11/12 03:13:10;;;;;;;142.85;14.18;;;;;;;;;;4997146;28;20034;-69
2022/11/12 03:15:59;;;;;;;144.93;14.30;;;;;;;;;;4995370;28;20038;-70
2022/11/12 03:18:44;;;;;;;256.27;19.13;;;;;;;;;;4991924;28;20045;-70
2022/11/12 03:21:28;;;;;;;139.32;14.68;;;;;;;;;;4994391;28;20051;-69
2022/11/12 03:24:13;;;;;;;238.77;18.30;;;;;;;;;;4997079;28;20038;-70
2022/11/12 03:26:58;;;;;;;108.22;12.60;;;;;;;;;;4985615;28;20038;-71
2022/11/12 03:29:42;;;;;;;83.15;11.85;;;;;;;;;;4992542;28;20112;-68
2022/11/12 03:32:26;;;;;;;76.05;12.43;;;;;;;;;;4996237;28;20397;-69
2022/11/12 03:35:11;;;;;;;70.43;10.63;;;;;;;;;;4989737;28;20299;-70
2022/11/12 03:37:55;;;;;;;79.10;12.60;;;;;;;;;;4993923;28;20030;-70
2022/11/12 03:40:39;;;;;;;46.05;11.88;;;;;;;;;;4990067;28;20041;-70
2022/11/12 03:43:23;;;;;;;42.92;10.50;;;;;;;;;;4991306;28;20042;-71
2022/11/12 03:46:08;;;;;;;31.23;11.32;;;;;;;;;;4993924;28;20038;-71
2022/11/12 03:48:52;;;;;;;40.55;11.88;;;;;;;;;;4983345;28;20160;-70
2022/11/12 03:51:37;;;;;;;37.60;11.20;;;;;;;;;;4987529;28;20089;-67
2022/11/12 03:54:21;;;;;;;30.73;11.82;;;;;;;;;;4993885;28;20065;-67
2022/11/12 03:57:05;;;;;;;54.13;11.85;;;;;;;;;;4994111;28;20038;-70
2022/11/12 03:59:50;;;;;;;68.57;12.50;;;;;;;;;;4992847;28;20041;-70
2022/11/12 04:02:34;;;;;;;159.02;15.38;;;;;;;;;;4989566;28;20062;-71
2022/11/12 04:08:34;;;;;;;98.15;12.35;;;;;;;;;;4988720;28;20034;-70
2022/11/12 04:11:19;;;;;;;171.65;13.95;;;;;;;;;;4994956;28;20049;-68
2022/11/12 04:14:04;;;;;;;89.50;12.55;;;;;;;;;;4999211;28;20036;-70
2022/11/12 04:23:04;;;;;;;209.63;15.82;;;;;;;;;;4958600;28;20049;-70
2022/11/12 04:31:54;;;;;;;201.60;15.48;;;;;;;;;;4990136;28;20056;-69
2022/11/12 04:34:38;;;;;;;324.50;20.00;;;;;;;;;;4992819;28;20177;-70
2022/11/12 04:37:25;;;;;;;156.40;14.73;;;;;;;;;;5002691;28;20515;-70
2022/11/12 04:46:31;;;;;;;240.02;17.27;;;;;;;;;;4997643;28;20435;-69
2022/11/12 04:49:15;;;;;;;108.38;13.68;;;;;;;;;;4997307;28;20051;-69
2022/11/12 04:52:05;;;;;;;242.68;16.40;;;;;;;;;;5002463;28;20576;-70
2022/11/12 04:54:50;;;;;;;260.48;16.38;;;;;;;;;;5006166;28;20030;-70
2022/11/12 04:57:35;;;;;;;105.63;13.30;;;;;;;;;;5002587;28;20098;-68
2022/11/12 05:00:19;;;;;;;203.85;14.80;;;;;;;;;;4996618;28;20030;-71
2022/11/12 05:03:03;;;;;;;272.00;17.65;;;;;;;;;;4992333;28;20041;-72
2022/11/12 05:05:48;;;;;;;235.73;16.33;;;;;;;;;;4993013;28;20038;-69
2022/11/12 05:08:32;;;;;;;243.60;15.95;;;;;;;;;;4992508;28;20145;-69
2022/11/12 05:11:16;;;;;;;281.33;17.83;;;;;;;;;;4990932;28;20058;-69
2022/11/12 05:14:01;;;;;;;403.80;24.20;;;;;;;;;;4995320;28;20668;-68
2022/11/12 05:16:45;;;;;;;308.88;19.50;;;;;;;;;;4998338;28;20452;-69
2022/11/12 05:19:29;;;;;;;257.25;17.33;;;;;;;;;;4990803;28;20157;-70
2022/11/12 05:22:14;;;;;;;287.27;18.48;;;;;;;;;;4993343;28;20100;-71
2022/11/12 05:24:58;;;;;;;268.27;18.70;;;;;;;;;;5000006;28;20481;-71
2022/11/12 05:27:42;;;;;;;197.52;17.52;;;;;;;;;;4991053;28;20033;-69
2022/11/12 05:30:27;;;;;;;307.15;20.42;;;;;;;;;;4986106;28;20042;-69
2022/11/12 05:33:11;;;;;;;244.23;18.30;;;;;;;;;;4995656;28;20045;-68
2022/11/12 05:35:56;;;;;;;399.00;22.80;;;;;;;;;;4996880;28;20409;-70
2022/11/12 05:38:40;;;;;;;290.08;19.20;;;;;;;;;;4992225;28;20435;-68
2022/11/12 05:41:25;;;;;;;275.52;18.83;;;;;;;;;;5000161;28;20505;-69
2022/11/12 05:44:09;;;;;;;239.02;19.65;;;;;;;;;;4989161;28;20096;-70
2022/11/12 05:46:53;;;;;;;200.20;17.30;;;;;;;;;;4995630;28;20044;-69
2022/11/12 05:49:38;;;;;;;180.02;17.38;;;;;;;;;;4988333;28;20040;-68
2022/11/12 05:52:22;;;;;;;279.70;19.10;;;;;;;;;;4988948;28;20038;-69
2022/11/12 05:55:07;;;;;;;107.55;13.50;;;;;;;;;;4994512;28;20042;-68
2022/11/12 05:57:51;;;;;;;79.05;12.60;;;;;;;;;;4993538;28;20064;-71
2022/11/12 06:00:38;;;;;;;31.27;9.40;;;;;;;;;;4993414;28;20035;-70
2022/11/12 06:03:23;;;;;;;96.80;12.70;;;;;;;;;;4994408;28;20045;-69
2022/11/12 06:06:07;;;;;;;32.40;12.32;;;;;;;;;;4987629;28;20044;-69
2022/11/12 06:08:51;;;;;;;46.97;11.07;;;;;;;;;;4999448;28;20318;-71
2022/11/12 06:11:36;;;;;;;111.10;12.98;;;;;;;;;;4991467;28;20081;-72
2022/11/12 06:14:20;;;;;;;38.78;10.60;;;;;;;;;;5000629;28;20044;-69
2022/11/12 06:17:04;;;;;;;82.85;12.35;;;;;;;;;;4996420;28;20035;-69
2022/11/12 06:19:49;;;;;;;65.05;12.07;;;;;;;;;;4991606;28;20084;-69
2022/11/12 06:22:33;;;;;;;46.17;11.60;;;;;;;;;;4996976;28;20077;-70
2022/11/12 06:25:18;;;;;;;134.93;13.82;;;;;;;;;;5003351;28;20262;-68
2022/11/12 06:28:02;;;;;;;149.07;13.65;;;;;;;;;;4997359;28;20545;-72
2022/11/12 06:30:46;;;;;;;72.75;11.93;;;;;;;;;;4991750;28;20337;-72
2022/11/12 06:33:30;;;;;;;38.22;10.57;;;;;;;;;;5000305;28;20180;-71
2022/11/12 06:36:18;;;;;;;67.75;11.05;;;;;;;;;;4990076;28;20158;-72
2022/11/12 06:39:02;;;;;;;108.65;13.98;;;;;;;;;;4992055;28;20037;-69
2022/11/12 06:41:46;;;;;;;114.18;13.23;;;;;;;;;;4996980;28;20050;-69
2022/11/12 06:44:31;;;;;;;30.50;10.30;;;;;;;;;;4988046;28;20041;-72
2022/11/12 06:47:15;;;;;;;81.15;12.68;;;;;;;;;;4995180;28;20569;-72
2022/11/12 06:49:59;;;;;;;68.43;12.10;;;;;;;;;;4997756;28;20042;-72
2022/11/12 06:52:43;;;;;;;71.28;13.30;;;;;;;;;;4992984;28;20030;-69
2022/11/12 06:55:28;;;;;;;83.20;12.40;;;;;;;;;;4987145;28;20057;-69
2022/11/12 06:58:12;;;;;;;69.47;12.73;;;;;;;;;;5000866;28;20045;-70
2022/11/12 07:00:57;;;;;;;77.15;14.77;;;;;;;;;;4993618;28;20034;-70
2022/11/12 07:03:41;;;;;;;35.58;10.60;;;;;;;;;;4986058;28;20126;-69
2022/11/12 07:06:26;;;;;;;79.30;11.25;;;;;;;;;;4988858;28;20536;-71
2022/11/12 07:09:10;;;;;;;217.00;16.50;;;;;;;;;;4994765;28;20038;-69
2022/11/12 07:11:54;;;;;;;261.55;17.17;;;;;;;;;;4991812;28;20124;-70
2022/11/12 07:14:39;;;;;;;180.02;14.00;;;;;;;;;;5006844;28;20072;-68
2022/11/12 07:17:23;;;;;;;146.38;14.73;;;;;;;;;;4995570;28;20045;-69
2022/11/12 07:20:08;;;;;;;39.17;12.00;;;;;;;;;;4997146;28;20045;-69
2022/11/12 07:22:52;;;;;;;250.63;16.05;;;;;;;;;;4989153;28;20069;-70
2022/11/12 07:25:36;;;;;;;378.20;24.77;;;;;;;;;;4991735;28;20044;-71
2022/11/12 07:28:21;;;;;;;344.48;23.48;;;;;;;;;;4996928;28;20076;-70
2022/11/12 07:31:08;;;;;;;533.78;29.55;;;;;;;;;;4988347;28;20062;-70
2022/11/12 07:33:52;;;;;;;399.83;23.88;;;;;;;;;;4990417;28;20039;-72
2022/11/12 07:36:37;;;;;;;434.70;27.90;;;;;;;;;;4994181;28;20100;-72
2022/11/12 07:39:21;;;;;;;297.58;19.92;;;;;;;;;;4992205;28;20619;-71
2022/11/12 07:42:05;;;;;;;285.88;19.58;;;;;;;;;;4990182;28;20512;-69
2022/11/12 07:44:49;;;;;;;342.38;20.73;;;;;;;;;;4992070;28;20084;-69
2022/11/12 07:47:34;;;;;;;546.63;28.73;;;;;;;;;;4989244;28;20470;-69
2022/11/12 07:50:18;;;;;;;402.90;23.33;;;;;;;;;;4989405;28;20046;-69
2022/11/12 07:53:02;;;;;;;379.58;30.08;;;;;;;;;;4993601;28;20167;-69
2022/11/12 07:55:58;;;;;;;166.88;18.67;;;;;;;;;;4989160;28;20081;-72
2022/11/12 07:58:44;;;;;;;277.25;18.52;;;;;;;;;;4986229;28;20517;-71
2022/11/12 08:01:32;;;;;;;235.50;18.38;;;;;;;;;;4992778;28;20417;-69
2022/11/12 08:04:17;;;;;;;664.45;32.28;;;;;;;;;;4983675;28;20041;-70
2022/11/12 08:07:01;;;;;;;244.02;18.33;;;;;;;;;;4987869;28;20053;-69
2022/11/12 08:09:45;;;;;;;484.05;27.52;;;;;;;;;;4994770;28;20038;-72
2022/11/12 08:12:30;;;;;;;482.10;28.23;;;;;;;;;;4982775;28;20034;-71
2022/11/12 08:15:14;;;;;;;132.60;29.30;;;;;;;;;;4987740;28;20042;-71
2022/11/12 08:17:58;;;;;;;152.75;15.68;;;;;;;;;;4983642;28;20045;-70
2022/11/12 08:20:43;;;;;;;117.00;15.88;;;;;;;;;;4987056;28;20106;-70
2022/11/12 08:23:28;;;;;;;140.00;15.10;;;;;;;;;;4989340;28;20036;-70
2022/11/12 08:26:16;;;;;;;45.42;12.27;;;;;;;;;;4990065;28;20512;-70
2022/11/12 08:29:00;;;;;;;283.15;20.33;;;;;;;;;;4982174;28;20038;-70
2022/11/12 08:31:45;;;;;;;90.70;14.40;;;;;;;;;;4991644;28;20045;-69
2022/11/12 08:34:29;;;;;;;232.85;17.80;;;;;;;;;;4986717;28;20034;-70
2022/11/12 08:37:14;;;;;;;103.05;23.35;;;;;;;;;;4988373;28;20136;-69
2022/11/12 08:39:58;;;;;;;108.07;14.07;;;;;;;;;;4985636;28;20045;-69
2022/11/12 08:42:42;;;;;;;89.85;14.00;;;;;;;;;;4991187;28;20439;-69
2022/11/12 08:45:28;;;;;;;18.10;13.68;;;;;;;;;;4987705;28;20149;-70
2022/11/12 08:48:13;;;;;;;21.45;11.20;;;;;;;;;;4987153;28;20482;-71
2022/11/12 08:50:59;;;;;;;20.13;12.15;;;;;;;;;;4992498;28;20046;-75
2022/11/12 08:53:43;;;;;;;48.28;12.82;;;;;;;;;;4993265;28;20045;-69
2022/11/12 08:56:27;;;;;;;72.60;13.45;;;;;;;;;;4987836;28;20033;-72
2022/11/12 08:59:12;;;;;;;27.33;14.52;;;;;;;;;;4993265;28;20053;-71
2022/11/12 09:01:55;;;;;;;23.50;13.70;;;;;;;;;;4999343;28;20041;-71
2022/11/12 09:04:40;;;;;;;23.08;14.98;;;;;;;;;;4991136;28;20026;-72
2022/11/12 09:07:25;;;;;;;16.25;12.88;;;;;;;;;;4991750;28;20489;-69
2022/11/12 09:10:09;;;;;;;15.77;12.48;;;;;;;;;;4997477;28;20370;-69
2022/11/12 09:12:53;;;;;;;25.42;13.75;;;;;;;;;;4995397;28;20038;-70
2022/11/12 09:15:37;;;;;;;20.58;12.23;;;;;;;;;;4985595;28;20034;-70
2022/11/12 09:18:22;;;;;;;13.95;12.50;;;;;;;;;;4992044;28;20472;-72
2022/11/12 09:21:09;;;;;;;14.57;12.57;;;;;;;;;;4994956;28;20044;-71
2022/11/12 09:23:54;;;;;;;80.57;14.10;;;;;;;;;;4989150;28;20144;-70
2022/11/12 09:26:38;;;;;;;85.32;14.73;;;;;;;;;;4988619;28;20066;-71
2022/11/12 09:29:23;;;;;;;137.98;16.00;;;;;;;;;;4992158;28;20039;-73
2022/11/12 09:32:07;;;;;;;62.30;12.05;;;;;;;;;;4996450;28;20045;-73
2022/11/12 09:34:52;;;;;;;14.90;12.00;;;;;;;;;;4999144;28;20042;-72
2022/11/12 09:37:37;;;;;;;13.02;11.32;;;;;;;;;;4999942;28;20130;-73
2022/11/12 09:40:30;;;;;;;43.95;13.10;;;;;;;;;;4992267;28;20050;-70
2022/11/12 09:43:22;;;;;;;23.02;11.68;;;;;;;;;;4991082;28;20636;-69
2022/11/12 09:46:43;;;;;;;13.60;12.20;;;;;;;;;;4994007;28;20575;-70
2022/11/12 09:49:37;;;;;;;22.25;12.15;;;;;;;;;;4989108;28;20088;-71
2022/11/12 09:52:29;;;;;;;10.85;9.80;;;;;;;;;;4989291;28;20026;-70
2022/11/12 09:55:23;;;;;;;16.23;12.32;;;;;;;;;;4994736;28;20029;-72
2022/11/12 09:58:14;;;;;;;14.60;12.48;;;;;;;;;;4996737;28;20046;-72
2022/11/12 10:01:06;;;;;;;15.23;12.02;;;;;;;;;;4986642;28;20515;-71
2022/11/12 10:04:24;;;;;;;25.45;13.05;;;;;;;;;;4993810;28;20064;-69
2022/11/12 10:07:22;;;;;;;13.57;12.20;;;;;;;;;;4992123;28;20042;-70
2022/11/12 10:11:06;;;;;;;13.65;12.20;;;;;;;;;;4988359;28;20239;-70
2022/11/12 10:14:07;;;;;;;13.85;12.45;;;;;;;;;;4922125;28;20158;-71
2022/11/12 10:17:14;;;;;;;13.07;11.77;;;;;;;;;;4985560;28;20034;-71
2022/11/12 10:20:04;;;;;;;13.60;12.23;;;;;;;;;;4989841;28;20499;-70
2022/11/12 10:23:07;;;;;;;16.75;12.73;;;;;;;;;;4993549;28;20089;-70
2022/11/12 10:25:57;;;;;;;13.25;11.95;;;;;;;;;;4990914;28;20169;-72
2022/11/12 10:28:51;;;;;;;13.18;11.88;;;;;;;;;;4989228;28;20124;-70
2022/11/12 10:31:36;;;;;;;13.48;12.07;;;;;;;;;;4995035;28;20054;-70
2022/11/12 10:34:22;;;;;;;13.40;12.00;;;;;;;;;;4993469;28;20045;-70
2022/11/12 10:37:11;;;;;;;13.63;12.43;;;;;;;;;;4994157;28;20081;-70
2022/11/12 10:39:55;;;;;;;14.65;11.65;;;;;;;;;;4983656;28;20064;-70
2022/11/12 10:43:15;;;;;;;13.18;11.98;;;;;;;;;;4995100;28;20049;-70
2022/11/12 10:46:17;;;;;;;11.93;10.82;;;;;;;;;;4912880;23;1507345;-71
2022/11/12 10:49:14;;;;;;;12.13;10.70;;;;;;;;;;4983781;28;20038;-71
2022/11/12 10:51:58;;;;;;;12.20;11.10;;;;;;;;;;4992534;28;20061;-71
2022/11/12 10:54:42;;;;;;;11.85;10.75;;;;;;;;;;4984850;28;20038;-71
2022/11/12 10:57:26;;;;;;;11.48;10.38;;;;;;;;;;5001521;28;20125;-72
2022/11/12 11:00:11;;;;;;;11.38;10.27;;;;;;;;;;4988840;28;20034;-72
2022/11/12 11:02:56;;;;;;;10.52;9.63;;;;;;;;;;5010350;28;20567;-71
2022/11/12 11:05:57;;;;;;;10.95;10.05;;;;;;;;;;4995886;28;20035;-70
2022/11/12 11:08:46;;;;;;;12.98;11.73;;;;;;;;;;4990707;28;20658;-71
2022/11/12 11:11:31;;;;;;;12.15;10.77;;;;;;;;;;4983966;28;20169;-71
2022/11/12 11:14:21;;;;;;;12.27;11.13;;;;;;;;;;4994391;28;20025;-70
2022/11/12 11:17:12;;;;;;;12.30;11.10;;;;;;;;;;4990951;28;20489;-71
2022/11/12 11:19:57;;;;;;;12.90;11.57;;;;;;;;;;5007020;28;20091;-71
2022/11/12 11:22:45;;;;;;;11.65;10.65;;;;;;;;;;4995213;28;20038;-70
2022/11/12 11:25:32;;;;;;;11.45;10.43;;;;;;;;;;4989454;28;20409;-71
2022/11/12 11:28:25;;;;;;;12.25;11.00;;;;;;;;;;4990004;28;20030;-71
2022/11/12 11:31:22;;;;;;;11.75;10.55;;;;;;;;;;4993940;28;20044;-70
2022/11/12 11:34:20;;;;;;;11.02;9.93;;;;;;;;;;4993001;28;20040;-70
2022/11/12 11:37:27;;;;;;;12.43;11.32;;;;;;;;;;4986786;28;20221;-69
2022/11/12 11:40:24;;;;;;;11.35;10.15;;;;;;;;;;4992089;28;20048;-69
2022/11/12 11:43:33;;;;;;;12.95;11.05;;;;;;;;;;4995272;28;20096;-69
2022/11/12 11:46:54;;;;;;;12.25;11.18;;;;;;;;;;4986003;28;20026;-70
2022/11/12 11:50:01;;;;;;;12.00;11.00;;;;;;;;;;4991252;28;20548;-70
2022/11/12 11:52:49;;;;;;;11.93;10.82;;;;;;;;;;4987552;28;20098;-69
2022/11/12 11:55:43;;;;;;;11.70;10.70;;;;;;;;;;4992038;28;20124;-69
2022/11/12 11:58:51;;;;;;;11.45;10.48;;;;;;;;;;4996194;28;20177;-69
2022/11/12 12:02:10;;;;;;;11.98;10.80;;;;;;;;;;4985371;28;20046;-69
2022/11/12 12:05:17;;;;;;;12.85;10.65;;;;;;;;;;4992900;28;20032;-70
2022/11/12 12:08:11;;;;;;;11.35;10.35;;;;;;;;;;4992597;28;20030;-70
2022/11/12 12:11:24;;;;;;;11.10;10.10;;;;;;;;;;4988193;28;20049;-70
2022/11/12 12:14:44;;;;;;;11.50;10.48;;;;;;;;;;4994699;28;20033;-70
2022/11/12 12:18:03;;;;;;;11.48;10.48;;;;;;;;;;4991069;28;20778;-69
2022/11/12 12:21:06;;;;;;;12.05;10.95;;;;;;;;;;4986867;28;20107;-69
2022/11/12 12:24:18;;;;;;;11.60;10.60;;;;;;;;;;4998238;28;20078;-68
2022/11/12 12:27:13;;;;;;;12.05;10.93;;;;;;;;;;4990140;28;20113;-69
2022/11/12 12:30:11;;;;;;;11.85;10.75;;;;;;;;;;4999176;28;20041;-69
2022/11/12 12:33:01;;;;;;;12.57;11.25;;;;;;;;;;4997531;28;20496;-71
2022/11/12 12:36:02;;;;;;;12.38;11.27;;;;;;;;;;4987466;28;20409;-71
2022/11/12 12:39:16;;;;;;;11.98;10.93;;;;;;;;;;4993749;28;20134;-71
2022/11/12 12:42:08;;;;;;;11.57;10.48;;;;;;;;;;4989413;28;20682;-70
2022/11/12 12:45:03;;;;;;;11.73;10.52;;;;;;;;;;4992349;28;20042;-70
2022/11/12 12:47:49;;;;;;;11.48;10.38;;;;;;;;;;4985694;28;20508;-70
2022/11/12 12:50:36;;;;;;;11.13;10.20;;;;;;;;;;4988874;28;20047;-71
2022/11/12 12:53:20;;;;;;;11.13;10.13;;;;;;;;;;4997988;28;20053;-71
2022/11/12 12:56:31;;;;;;;10.73;9.82;;;;;;;;;;4995894;28;20048;-71
2022/11/12 12:59:19;;;;;;;11.40;10.32;;;;;;;;;;4993416;28;21272;-70
2022/11/12 13:02:21;;;;;;;11.30;10.20;;;;;;;;;;4994171;28;20518;-70
2022/11/12 13:05:23;;;;;;;10.65;9.70;;;;;;;;;;4996359;28;20088;-71
2022/11/12 13:08:22;;;;;;;11.30;10.23;;;;;;;;;;4990210;28;20057;-70
2022/11/12 13:11:06;;;;;;;10.45;9.65;;;;;;;;;;4988095;28;20041;-71
2022/11/12 13:13:50;;;;;;;10.95;9.95;;;;;;;;;;4995509;28;20086;-71
2022/11/12 13:17:10;;;;;;;11.40;10.20;;;;;;;;;;4988406;28;20066;-71
2022/11/12 13:19:57;;;;;;;11.30;10.30;;;;;;;;;;4966971;28;20056;-71
2022/11/12 13:22:41;;;;;;;11.20;10.30;;;;;;;;;;4995321;28;20041;-71
2022/11/12 13:25:31;;;;;;;11.20;10.20;;;;;;;;;;4987331;28;20045;-70
2022/11/12 13:28:17;;;;;;;11.20;10.20;;;;;;;;;;4991712;28;20034;-71
2022/11/12 13:31:02;;;;;;;11.52;10.48;;;;;;;;;;4994006;28;20044;-71
2022/11/12 13:33:47;;;;;;;12.43;10.90;;;;;;;;;;4985894;28;20112;-70
2022/11/12 13:36:31;;;;;;;10.63;9.55;;;;;;;;;;4988969;28;20396;-70
2022/11/12 13:39:19;;;;;;;11.30;10.02;;;;;;;;;;4993939;28;20093;-71
2022/11/12 13:45:26;;;;;;;10.07;9.18;;;;;;;;;;4991731;28;20041;-71
2022/11/12 13:48:30;;;;;;;11.25;10.20;;;;;;;;;;4988702;28;20040;-71
2022/11/12 13:51:16;;;;;;;11.10;10.00;;;;;;;;;;4989213;28;20031;-70
2022/11/12 13:54:01;;;;;;;11.27;10.10;;;;;;;;;;4996258;28;20060;-70
2022/11/12 13:56:45;;;;;;;11.55;9.88;;;;;;;;;;4993082;28;20039;-70
2022/11/12 13:59:29;;;;;;;11.20;10.25;;;;;;;;;;4986900;28;20125;-70
2022/11/12 14:02:24;;;;;;;11.05;10.05;;;;;;;;;;4996185;28;20038;-71
2022/11/12 14:05:22;;;;;;;11.70;10.23;;;;;;;;;;5001422;28;20084;-70
2022/11/12 14:08:51;;;;;;;11.05;9.90;;;;;;;;;;4987570;28;20080;-70
2022/11/12 14:11:56;;;;;;;11.20;10.20;;;;;;;;;;4995647;28;20041;-71
2022/11/12 14:15:06;;;;;;;10.80;9.82;;;;;;;;;;4989895;28;20457;-70
2022/11/12 14:18:21;;;;;;;11.05;9.98;;;;;;;;;;4991520;28;20440;-70
2022/11/12 14:21:12;;;;;;;12.25;10.25;;;;;;;;;;4996657;28;20076;-70
2022/11/12 14:23:56;;;;;;;12.70;11.23;;;;;;;;;;4998495;28;20060;-70
2022/11/12 14:26:42;;;;;;;12.20;10.93;;;;;;;;;;4997256;28;20044;-70
2022/11/12 14:29:26;;;;;;;12.18;10.98;;;;;;;;;;4985439;28;20106;-70
2022/11/12 14:32:11;;;;;;;11.18;10.18;;;;;;;;;;4988853;28;20036;-70
2022/11/12 14:34:55;;;;;;;11.65;10.55;;;;;;;;;;4996232;28;20435;-70
2022/11/12 14:37:49;;;;;;;11.65;10.45;;;;;;;;;;4996509;28;20125;-70
2022/11/12 14:40:54;;;;;;;11.68;10.57;;;;;;;;;;4985957;28;20071;-70
2022/11/12 14:43:56;;;;;;;12.77;10.27;;;;;;;;;;4994588;28;20723;-70
2022/11/12 14:46:52;;;;;;;12.40;11.10;;;;;;;;;;4990493;28;20045;-70
2022/11/12 14:49:42;;;;;;;14.43;12.43;;;;;;;;;;4983191;28;20037;-70
2022/11/12 14:52:34;;;;;;;17.63;13.82;;;;;;;;;;4990505;28;20104;-70
2022/11/12 14:55:23;;;;;;;13.25;11.45;;;;;;;;;;4993619;28;20117;-69
2022/11/12 14:58:13;;;;;;;11.90;10.57;;;;;;;;;;4987624;28;20046;-70
2022/11/12 15:00:58;;;;;;;11.48;10.43;;;;;;;;;;4987853;28;20040;-70
2022/11/12 15:03:42;;;;;;;14.00;11.63;;;;;;;;;;4994125;28;20120;-70
2022/11/12 15:06:31;;;;;;;13.77;12.35;;;;;;;;;;4984203;28;20034;-69
2022/11/12 15:09:17;;;;;;;17.85;12.75;;;;;;;;;;4989795;28;20034;-70
2022/11/12 15:12:23;;;;;;;14.00;12.70;;;;;;;;;;4990612;28;20026;-69
2022/11/12 15:15:19;;;;;;;14.98;12.73;;;;;;;;;;4985865;28;20117;-70
2022/11/12 15:18:18;;;;;;;15.45;13.05;;;;;;;;;;4990899;28;20121;-70
2022/11/12 15:21:13;;;;;;;17.33;13.20;;;;;;;;;;4992530;28;20129;-70
2022/11/12 15:24:06;;;;;;;14.27;12.88;;;;;;;;;;4985420;28;20045;-70
2022/11/12 15:26:51;;;;;;;17.67;13.05;;;;;;;;;;4995160;28;20080;-70
2022/11/12 15:29:36;;;;;;;13.93;12.48;;;;;;;;;;4986280;28;20030;-69
2022/11/12 15:32:20;;;;;;;14.55;12.90;;;;;;;;;;4997466;28;20037;-69
2022/11/12 15:35:18;;;;;;;15.13;12.75;;;;;;;;;;4994152;28;20524;-69
2022/11/12 15:38:06;;;;;;;13.55;12.15;;;;;;;;;;4990913;28;20042;-70
2022/11/12 15:40:55;;;;;;;14.15;11.75;;;;;;;;;;4983941;28;20049;-69
2022/11/12 15:43:41;;;;;;;13.57;11.18;;;;;;;;;;4991495;28;20481;-69
2022/11/12 15:46:25;;;;;;;11.63;10.43;;;;;;;;;;4987259;28;20049;-70
2022/11/12 15:49:13;;;;;;;13.75;12.15;;;;;;;;;;4990672;28;20158;-70
2022/11/12 15:51:57;;;;;;;14.23;12.40;;;;;;;;;;4993755;28;20037;-70
2022/11/12 15:54:41;;;;;;;16.05;12.43;;;;;;;;;;5006569;28;20065;-70
2022/11/12 15:57:28;;;;;;;14.07;12.55;;;;;;;;;;4986403;28;20129;-70
2022/11/12 16:00:15;;;;;;;14.35;12.60;;;;;;;;;;4995694;28;20082;-70
2022/11/12 16:03:19;;;;;;;17.48;13.65;;;;;;;;;;4998221;28;20044;-70
2022/11/12 16:06:04;;;;;;;16.33;12.73;;;;;;;;;;4987144;28;20050;-70
2022/11/12 16:08:48;;;;;;;14.07;11.50;;;;;;;;;;4990743;28;20096;-69
2022/11/12 16:11:36;;;;;;;14.57;12.60;;;;;;;;;;4996257;28;20030;-69
2022/11/12 16:14:20;;;;;;;16.52;12.77;;;;;;;;;;4997223;28;20065;-69
2022/11/12 16:17:13;;;;;;;13.80;12.10;;;;;;;;;;4988582;28;20108;-70
2022/11/12 16:19:57;;;;;;;15.75;13.05;;;;;;;;;;4996264;28;20053;-70
2022/11/12 16:22:42;;;;;;;17.42;13.35;;;;;;;;;;4998180;28;20042;-70
2022/11/12 16:25:32;;;;;;;19.75;13.50;;;;;;;;;;4986731;28;20069;-70
2022/11/12 16:28:17;;;;;;;15.90;13.32;;;;;;;;;;5006756;28;20037;-70
2022/11/12 16:31:01;;;;;;;26.88;19.42;;;;;;;;;;4995346;28;20176;-70
2022/11/12 16:33:46;;;;;;;49.67;30.20;;;;;;;;;;4988683;28;20042;-70
2022/11/12 16:36:30;;;;;;;65.75;41.47;;;;;;;;;;4994376;28;20089;-69
2022/11/12 16:39:14;;;;;;;58.53;34.33;;;;;;;;;;4996314;28;20038;-69
2022/11/12 16:41:59;;;;;;;41.65;27.55;;;;;;;;;;4986625;28;20041;-70
2022/11/12 16:44:43;;;;;;;36.42;24.77;;;;;;;;;;4999997;28;20044;-70
2022/11/12 16:47:30;;;;;;;34.58;24.13;;;;;;;;;;5012653;23;20765;-69
2022/11/12 16:50:17;;;;;;;21.58;15.00;;;;;;;;;;4988132;28;20051;-69